createdAt,value
2023-03-17T00:01:18.165Z,3.05
2023-03-17T00:03:46.469Z,3.50
2023-03-17T00:06:28.598Z,2.67
2023-03-17T00:08:56.285Z,4.25
2023-03-17T00:11:22.823Z,2.72
2023-03-17T00:13:49.655Z,3.03
2023-03-17T00:16:22.369Z,2.60
2023-03-17T00:18:50.952Z,2.90
2023-03-17T00:21:24.492Z,2.92
2023-03-17T00:23:54.827Z,2.70
2023-03-17T00:26:22.490Z,2.70
2023-03-17T00:28:50.728Z,2.90
2023-03-17T00:31:20.841Z,2.25
2023-03-17T00:33:49.801Z,3.47
2023-03-17T00:36:20.362Z,3.35
2023-03-17T00:38:47.186Z,1.88
2023-03-17T00:41:13.830Z,2.80
2023-03-17T00:43:40.957Z,2.45
2023-03-17T00:46:38.181Z,3.15
2023-03-17T00:49:19.048Z,2.75
2023-03-17T00:51:46.688Z,3.47
2023-03-17T00:54:14.368Z,2.37
2023-03-17T00:56:42.295Z,2.20
2023-03-17T00:59:30.582Z,1.83
2023-03-17T01:01:57.376Z,2.30
2023-03-17T01:04:24.224Z,1.80
2023-03-17T01:06:51.282Z,1.93
2023-03-17T01:09:19.311Z,1.60
2023-03-17T01:11:47.125Z,1.33
2023-03-17T01:14:13.676Z,1.40
2023-03-17T01:16:40.757Z,1.20
2023-03-17T01:19:07.761Z,1.67
2023-03-17T01:21:34.811Z,1.20
2023-03-17T01:24:01.590Z,1.13
2023-03-17T01:26:28.641Z,1.08
2023-03-17T01:28:55.319Z,1.20
2023-03-17T01:31:23.445Z,1.10
2023-03-17T01:33:51.308Z,1.42
2023-03-17T01:36:18.237Z,0.98
2023-03-17T01:38:45.741Z,1.40
2023-03-17T01:41:12.648Z,1.10
2023-03-17T01:43:39.295Z,1.03
2023-03-17T01:46:14.800Z,0.93
2023-03-17T01:49:05.850Z,1.15
2023-03-17T01:51:38.983Z,0.80
2023-03-17T01:54:11.706Z,1.00
2023-03-17T01:56:42.104Z,0.87
2023-03-17T01:59:11.667Z,0.80
2023-03-17T02:01:42.222Z,0.90
2023-03-17T02:04:10.728Z,0.90
2023-03-17T02:06:47.465Z,0.80
2023-03-17T02:09:21.812Z,1.13
2023-03-17T02:11:49.107Z,1.10
2023-03-17T02:14:15.766Z,0.77
2023-03-17T02:16:45.117Z,1.10
2023-03-17T02:19:12.677Z,0.90
2023-03-17T02:21:42.609Z,0.80
2023-03-17T02:24:16.004Z,0.80
2023-03-17T02:26:45.542Z,0.70
2023-03-17T02:29:12.794Z,0.73
2023-03-17T02:31:39.322Z,0.70
2023-03-17T02:34:06.096Z,0.60
2023-03-17T02:36:32.729Z,0.60
2023-03-17T02:38:59.836Z,1.10
2023-03-17T02:41:26.398Z,0.70
2023-03-17T02:43:53.791Z,0.70
2023-03-17T02:46:20.460Z,0.93
2023-03-17T02:48:47.604Z,1.20
2023-03-17T02:51:14.139Z,0.88
2023-03-17T02:53:40.786Z,0.70
2023-03-17T02:56:07.860Z,1.10
2023-03-17T02:58:34.496Z,0.60
2023-03-17T03:01:01.226Z,0.80
2023-03-17T03:03:28.289Z,0.82
2023-03-17T03:05:54.823Z,0.60
2023-03-17T03:08:22.327Z,1.00
2023-03-17T03:10:48.847Z,0.50
2023-03-17T03:13:15.451Z,0.70
2023-03-17T03:15:43.325Z,0.85
2023-03-17T03:18:10.141Z,0.65
2023-03-17T03:20:36.774Z,0.85
2023-03-17T03:23:03.992Z,0.97
2023-03-17T03:25:30.608Z,0.98
2023-03-17T03:27:57.188Z,0.95
2023-03-17T03:30:23.774Z,0.90
2023-03-17T03:32:50.349Z,1.05
2023-03-17T03:35:17.013Z,0.80
2023-03-17T03:37:43.742Z,0.77
2023-03-17T03:40:11.275Z,0.60
2023-03-17T03:42:37.779Z,1.05
2023-03-17T03:45:05.148Z,1.20
2023-03-17T03:47:31.777Z,1.00
2023-03-17T03:49:58.344Z,1.30
2023-03-17T03:52:24.920Z,1.38
2023-03-17T03:54:51.577Z,1.80
2023-03-17T03:57:18.179Z,2.15
2023-03-17T03:59:44.738Z,2.80
2023-03-17T04:02:11.553Z,2.50
2023-03-17T04:04:38.646Z,2.28
2023-03-17T04:07:05.944Z,2.25
2023-03-17T04:09:33.144Z,2.42
2023-03-17T04:11:59.673Z,2.30
2023-03-17T04:14:26.322Z,2.13
2023-03-17T04:16:52.839Z,2.67
2023-03-17T04:19:20.444Z,2.30
2023-03-17T04:21:47.940Z,2.22
2023-03-17T04:24:14.865Z,3.30
2023-03-17T04:26:41.621Z,1.85
2023-03-17T04:29:08.975Z,2.03
2023-03-17T04:31:36.847Z,2.03
2023-03-17T04:34:03.502Z,1.80
2023-03-17T04:36:30.088Z,1.77
2023-03-17T04:38:56.733Z,1.67
2023-03-17T04:41:23.404Z,2.10
2023-03-17T04:43:50.043Z,1.70
2023-03-17T04:46:16.725Z,1.50
2023-03-17T04:48:43.297Z,1.70
2023-03-17T04:51:11.795Z,1.30
2023-03-17T04:53:38.502Z,2.00
2023-03-17T04:56:05.394Z,1.80
2023-03-17T04:58:31.970Z,1.77
2023-03-17T05:00:59.095Z,1.87
2023-03-17T05:03:27.809Z,2.05
2023-03-17T05:05:55.664Z,2.42
2023-03-17T05:08:22.369Z,2.22
2023-03-17T05:10:48.949Z,2.00
2023-03-17T05:13:16.070Z,2.30
2023-03-17T05:15:50.480Z,2.05
2023-03-17T05:18:18.364Z,2.35
2023-03-17T05:20:45.260Z,2.33
2023-03-17T05:23:12.309Z,1.90
2023-03-17T05:25:40.143Z,1.90
2023-03-17T05:28:07.781Z,2.10
2023-03-17T05:30:36.640Z,2.05
2023-03-17T05:33:04.055Z,1.90
2023-03-17T05:35:30.871Z,2.40
2023-03-17T05:37:57.447Z,2.57
2023-03-17T05:40:24.331Z,2.60
2023-03-17T05:42:51.737Z,2.58
2023-03-17T05:45:18.750Z,2.50
2023-03-17T05:47:45.896Z,2.63
2023-03-17T05:50:13.047Z,2.60
2023-03-17T05:52:40.091Z,2.45
2023-03-17T05:55:07.895Z,2.70
2023-03-17T05:57:34.771Z,2.67
2023-03-17T06:00:02.492Z,2.95
2023-03-17T06:02:29.452Z,2.77
2023-03-17T06:04:56.734Z,2.50
2023-03-17T06:07:23.257Z,3.03
2023-03-17T06:09:50.019Z,3.45
2023-03-17T06:12:16.779Z,3.55
2023-03-17T06:14:43.498Z,3.23
2023-03-17T06:17:10.383Z,3.60
2023-03-17T06:19:37.009Z,3.92
2023-03-17T06:22:03.741Z,3.97
2023-03-17T06:24:30.463Z,3.97
2023-03-17T06:26:56.998Z,4.07
2023-03-17T06:29:24.836Z,3.50
2023-03-17T06:31:51.670Z,3.80
2023-03-17T06:34:19.667Z,3.67
2023-03-17T06:36:47.246Z,3.95
2023-03-17T06:39:15.781Z,3.90
2023-03-17T06:41:42.773Z,3.85
2023-03-17T06:44:10.153Z,3.63
2023-03-17T06:46:36.811Z,3.65
2023-03-17T06:49:03.712Z,3.03
2023-03-17T06:51:32.407Z,3.43
2023-03-17T06:53:58.934Z,3.25
2023-03-17T06:56:30.216Z,3.50
2023-03-17T06:58:57.576Z,4.07
2023-03-17T07:01:27.681Z,3.30
2023-03-17T07:03:57.635Z,3.70
2023-03-17T07:06:33.853Z,3.80
2023-03-17T07:09:02.178Z,3.30
2023-03-17T07:11:30.777Z,3.33
2023-03-17T07:13:57.659Z,3.40
2023-03-17T07:16:29.677Z,4.10
2023-03-17T07:22:18.376Z,3.35
2023-03-17T07:24:52.720Z,3.35
2023-03-17T07:27:46.775Z,3.53
2023-03-17T07:30:22.918Z,3.90
2023-03-17T07:35:52.705Z,3.92
2023-03-17T07:38:24.536Z,3.70
2023-03-17T07:41:28.747Z,3.67
2023-03-17T07:43:58.566Z,3.10
2023-03-17T07:46:29.288Z,3.30
2023-03-17T07:49:04.163Z,3.92
2023-03-17T07:51:35.624Z,3.80
2023-03-17T07:54:30.522Z,3.58
2023-03-17T07:57:09.127Z,3.40
2023-03-17T07:59:36.381Z,3.53
2023-03-17T08:02:04.307Z,3.63
2023-03-17T08:04:39.468Z,3.78
2023-03-17T08:07:34.940Z,3.58
2023-03-17T08:10:15.238Z,3.53
2023-03-17T08:16:30.661Z,4.05
2023-03-17T08:19:00.707Z,3.50
2023-03-17T08:21:46.155Z,3.75
2023-03-17T08:24:13.323Z,3.60
2023-03-17T08:26:40.000Z,3.10
2023-03-17T08:29:08.709Z,2.75
2023-03-17T08:31:36.667Z,2.90
2023-03-17T08:34:11.763Z,2.80
2023-03-17T08:36:40.432Z,2.83
2023-03-17T08:39:13.399Z,3.25
2023-03-17T08:41:40.244Z,3.38
2023-03-17T08:44:09.258Z,3.10
2023-03-17T08:46:53.942Z,2.88
2023-03-17T08:49:21.866Z,2.57
2023-03-17T08:51:49.245Z,2.83
2023-03-17T08:54:15.981Z,2.47
2023-03-17T08:56:45.807Z,2.05
2023-03-17T08:59:12.592Z,1.83
2023-03-17T09:01:40.196Z,1.83
2023-03-17T09:04:06.992Z,1.23
2023-03-17T09:06:36.006Z,1.98
2023-03-17T09:09:03.014Z,1.30
2023-03-17T09:11:32.804Z,1.40
2023-03-17T09:14:03.835Z,1.40
2023-03-17T09:16:34.258Z,1.38
2023-03-17T09:19:01.373Z,1.65
2023-03-17T09:21:28.685Z,1.50
2023-03-17T09:23:55.365Z,1.60
2023-03-17T09:26:24.657Z,1.67
2023-03-17T09:28:52.328Z,2.15
2023-03-17T09:31:19.449Z,1.85
2023-03-17T09:33:47.415Z,1.77
2023-03-17T09:36:14.339Z,1.58
2023-03-17T09:38:55.951Z,1.70
2023-03-17T09:41:53.996Z,1.75
2023-03-17T09:44:39.897Z,1.63
2023-03-17T09:47:25.438Z,2.10
2023-03-17T09:49:57.406Z,1.75
2023-03-17T09:52:30.074Z,1.77
2023-03-17T09:55:16.419Z,1.70
2023-03-17T09:57:46.472Z,1.60
2023-03-17T10:00:26.818Z,1.92
2023-03-17T10:02:54.414Z,1.88
2023-03-17T10:05:25.127Z,1.80
2023-03-17T10:08:29.048Z,1.60
2023-03-17T10:11:17.049Z,1.95
2023-03-17T10:13:45.876Z,1.50
2023-03-17T10:16:24.347Z,1.65
2023-03-17T10:19:21.838Z,1.60
2023-03-17T10:22:17.859Z,1.70
2023-03-17T10:24:48.644Z,1.50
2023-03-17T10:27:17.243Z,1.85
2023-03-17T10:29:46.474Z,1.63
2023-03-17T10:32:19.966Z,1.90
2023-03-17T10:34:55.043Z,2.03
2023-03-17T10:37:26.901Z,2.10
2023-03-17T10:39:57.756Z,2.17
2023-03-17T10:42:29.138Z,1.67
2023-03-17T10:45:07.634Z,2.10
2023-03-17T10:47:46.989Z,1.85
2023-03-17T10:50:13.624Z,1.90
2023-03-17T10:52:41.099Z,1.80
2023-03-17T10:55:15.713Z,1.83
2023-03-17T10:57:53.079Z,1.90
2023-03-17T11:00:21.927Z,1.50
2023-03-17T11:03:37.465Z,1.60
2023-03-17T11:06:17.615Z,1.40
2023-03-17T11:08:53.880Z,1.23
2023-03-17T11:11:40.390Z,1.30
2023-03-17T11:14:36.855Z,1.23
2023-03-17T11:17:13.789Z,1.48
2023-03-17T11:20:15.902Z,1.75
2023-03-17T11:23:06.710Z,1.50
2023-03-17T11:25:36.983Z,1.50
2023-03-17T11:28:25.260Z,1.63
2023-03-17T11:31:45.314Z,1.65
2023-03-17T11:34:29.631Z,1.67
2023-03-17T11:37:20.823Z,1.25
2023-03-17T11:40:14.606Z,1.43
2023-03-17T11:43:29.818Z,1.73
2023-03-17T11:46:16.628Z,0.90
2023-03-17T11:48:53.108Z,1.10
2023-03-17T11:51:42.227Z,1.13
2023-03-17T11:54:15.304Z,1.00
2023-03-17T11:56:54.391Z,1.00
2023-03-17T11:59:28.961Z,1.25
2023-03-17T12:02:38.990Z,1.42
2023-03-17T12:05:15.469Z,1.20
2023-03-17T12:07:55.566Z,1.07
2023-03-17T12:10:59.958Z,1.30
2023-03-17T12:17:20.056Z,1.75
2023-03-17T13:01:22.906Z,1.10
2023-03-17T13:08:46.869Z,0.85
2023-03-17T13:27:33.683Z,0.68
2023-03-17T13:30:26.246Z,0.67
2023-03-17T13:33:26.300Z,0.85
2023-03-17T13:36:43.450Z,0.70
2023-03-17T13:46:36.526Z,0.60
2023-03-17T14:04:40.188Z,0.80
2023-03-17T14:16:39.872Z,0.88
2023-03-17T14:41:24.223Z,0.70
2023-03-17T14:53:01.116Z,1.00
2023-03-17T15:03:47.923Z,0.65
2023-03-17T15:06:40.458Z,0.70
2023-03-17T15:18:02.844Z,0.60
2023-03-17T15:20:40.342Z,0.50
2023-03-17T15:24:01.988Z,0.88
2023-03-17T15:27:28.980Z,0.95
2023-03-17T16:31:35.164Z,0.77
2023-03-17T16:50:38.664Z,1.48
2023-03-17T17:20:37.072Z,1.42
2023-03-17T17:38:02.930Z,1.20
2023-03-17T17:40:43.775Z,1.17
2023-03-17T17:50:30.965Z,1.90
2023-03-17T17:53:11.081Z,1.45
2023-03-17T17:56:19.741Z,1.70
2023-03-17T17:59:13.976Z,2.47
2023-03-17T18:02:38.365Z,2.40
2023-03-17T18:05:06.259Z,2.15
2023-03-17T18:07:48.655Z,2.78
2023-03-17T18:10:29.370Z,2.60
2023-03-17T18:13:05.219Z,2.15
2023-03-17T18:15:36.896Z,1.70
2023-03-17T18:18:10.052Z,1.65
2023-03-17T18:20:52.664Z,1.35
2023-03-17T18:23:51.661Z,1.43
2023-03-17T18:26:20.349Z,1.90
2023-03-17T18:28:50.130Z,1.80
2023-03-17T18:31:23.893Z,1.85
2023-03-17T18:33:59.998Z,2.17
2023-03-17T18:36:30.209Z,1.30
2023-03-17T18:38:59.487Z,1.90
2023-03-17T18:41:27.295Z,2.20
2023-03-17T18:44:16.408Z,1.60
2023-03-17T18:46:45.357Z,2.08
2023-03-17T18:49:17.653Z,2.73
2023-03-17T18:51:46.700Z,2.10
2023-03-17T18:55:09.061Z,3.25
2023-03-17T18:57:13.511Z,2.33
2023-03-17T18:59:45.491Z,2.00
2023-03-17T19:02:37.622Z,1.70
2023-03-17T19:05:08.784Z,1.67
2023-03-17T19:07:47.537Z,2.72
2023-03-17T19:10:22.839Z,1.35
2023-03-17T19:12:55.514Z,1.60
2023-03-17T19:15:36.914Z,1.50
2023-03-17T19:18:29.798Z,1.45
2023-03-17T19:21:16.818Z,1.65
2023-03-17T19:23:48.551Z,2.13
2023-03-17T19:26:24.362Z,2.35
2023-03-17T19:29:07.001Z,2.17
2023-03-17T19:32:51.784Z,2.45
2023-03-17T19:35:23.289Z,3.00
2023-03-17T19:38:01.314Z,2.95
2023-03-17T19:40:41.251Z,3.05
2023-03-17T19:43:22.609Z,2.40
2023-03-17T19:46:06.895Z,2.38
2023-03-17T19:48:33.615Z,2.05
2023-03-17T19:51:01.524Z,1.70
2023-03-17T19:53:30.511Z,1.75
2023-03-17T19:55:58.309Z,2.00
2023-03-17T19:58:25.477Z,2.20
2023-03-17T20:00:52.205Z,2.50
2023-03-17T20:03:19.157Z,2.20
2023-03-17T20:05:48.463Z,2.50
2023-03-17T20:08:17.547Z,2.23
2023-03-17T20:10:45.053Z,2.30
2023-03-17T20:13:15.692Z,3.05
2023-03-17T20:15:42.555Z,3.17
2023-03-17T20:18:09.385Z,4.72
2023-03-17T20:20:38.751Z,4.83
2023-03-17T20:23:05.394Z,4.93
2023-03-17T20:25:34.969Z,4.75
2023-03-17T20:28:06.535Z,3.90
2023-03-17T20:30:44.709Z,4.03
2023-03-17T20:33:14.426Z,3.83
2023-03-17T20:35:47.025Z,3.70
2023-03-17T20:38:19.612Z,3.70
2023-03-17T20:40:46.644Z,4.30
2023-03-17T20:43:13.548Z,3.92
2023-03-17T20:46:09.047Z,4.97
2023-03-17T20:48:39.992Z,5.70
2023-03-17T20:51:16.991Z,6.15
2023-03-17T20:53:49.593Z,5.93
2023-03-17T20:56:22.609Z,7.22
2023-03-17T20:58:53.322Z,6.73
2023-03-17T21:01:37.993Z,6.70
2023-03-17T21:04:19.288Z,8.50
2023-03-17T21:06:53.733Z,8.20
2023-03-17T21:09:23.033Z,8.35
2023-03-17T21:12:01.346Z,9.53
2023-03-17T21:14:34.705Z,8.18
2023-03-17T21:17:04.430Z,8.80
2023-03-17T21:19:36.662Z,7.38
2023-03-17T21:22:24.601Z,8.07
2023-03-17T21:25:30.801Z,8.13
2023-03-17T21:34:37.324Z,7.93
2023-03-17T21:38:13.724Z,7.97
2023-03-17T21:41:25.229Z,9.13
2023-03-17T21:46:39.215Z,6.93
2023-03-17T21:49:07.818Z,6.15
2023-03-17T21:52:22.145Z,6.25
2023-03-17T21:58:07.253Z,5.75
2023-03-17T22:00:59.007Z,5.18
2023-03-17T22:03:55.808Z,4.68
2023-03-17T22:06:32.930Z,5.03
2023-03-17T22:09:28.251Z,5.27
2023-03-17T22:12:52.992Z,4.47
2023-03-17T22:15:48.234Z,4.20
2023-03-17T22:18:46.597Z,4.70
2023-03-17T22:21:28.906Z,3.55
2023-03-17T22:27:02.704Z,4.38
2023-03-17T22:29:49.873Z,4.32
2023-03-17T22:32:20.520Z,3.30
2023-03-17T22:35:34.307Z,3.60
2023-03-17T22:41:51.217Z,2.92
2023-03-17T22:48:03.332Z,2.30
2023-03-17T22:50:43.916Z,2.50
2023-03-17T22:53:22.637Z,2.80
2023-03-17T22:55:52.489Z,2.65
2023-03-17T22:58:20.016Z,2.55
2023-03-17T23:00:48.491Z,3.50
2023-03-17T23:03:18.022Z,2.47
2023-03-17T23:05:49.894Z,3.07
2023-03-17T23:08:18.908Z,3.50
2023-03-17T23:10:47.766Z,3.28
2023-03-17T23:13:14.815Z,2.50
2023-03-17T23:15:41.697Z,2.20
2023-03-17T23:18:09.363Z,2.27
2023-03-17T23:20:37.622Z,2.45
2023-03-17T23:23:04.935Z,2.50
2023-03-17T23:25:31.997Z,2.47
2023-03-17T23:27:58.926Z,2.75
2023-03-17T23:30:26.059Z,3.10
2023-03-17T23:32:53.877Z,3.42
2023-03-17T23:35:20.540Z,3.55
2023-03-17T23:37:47.381Z,3.35
2023-03-17T23:40:17.162Z,3.92
2023-03-17T23:42:45.212Z,4.30
2023-03-17T23:45:12.214Z,4.97
2023-03-17T23:47:38.970Z,4.38
2023-03-17T23:50:06.069Z,4.18
2023-03-17T23:52:33.187Z,3.65
2023-03-17T23:55:01.205Z,4.83
2023-03-17T23:57:27.761Z,4.05
2023-03-17T23:59:54.281Z,3.72
